sensor_id;sensor_type;location;lat;lon;timestamp;pressure;altitude;pressure_sealevel;temperature;humidity
804;BME280;25687;49.976;8.240;2022-09-20T00:01:20;100603.56;;;9.60;100.00
804;BME280;25687;49.976;8.240;2022-09-20T00:03:48;100604.69;;;9.54;100.00
804;BME280;25687;49.976;8.240;2022-09-20T00:06:18;100613.00;;;9.59;100.00
804;BME280;25687;49.976;8.240;2022-09-20T00:08:44;100613.72;;;9.63;100.00
804;BME280;25687;49.976;8.240;2022-09-20T00:11:23;100610.63;;;9.55;100.00
804;BME280;25687;49.976;8.240;2022-09-20T00:13:51;100605.69;;;9.71;100.00
804;BME280;25687;49.976;8.240;2022-09-20T00:16:26;100599.91;;;9.65;100.00
804;BME280;25687;49.976;8.240;2022-09-20T00:18:56;100603.94;;;9.71;100.00
804;BME280;25687;49.976;8.240;2022-09-20T00:21:26;100602.28;;;9.70;100.00
804;BME280;25687;49.976;8.240;2022-09-20T00:23:52;100602.16;;;9.73;100.00
804;BME280;25687;49.976;8.240;2022-09-20T00:26:20;100603.25;;;9.67;100.00
804;BME280;25687;49.976;8.240;2022-09-20T00:28:46;100605.44;;;9.56;100.00
804;BME280;25687;49.976;8.240;2022-09-20T00:31:12;100604.06;;;9.47;100.00
804;BME280;25687;49.976;8.240;2022-09-20T00:33:38;100601.50;;;9.47;100.00
804;BME280;25687;49.976;8.240;2022-09-20T00:36:25;100595.91;;;9.37;100.00
804;BME280;25687;49.976;8.240;2022-09-20T00:39:00;100595.69;;;9.23;100.00
804;BME280;25687;49.976;8.240;2022-09-20T00:41:27;100603.94;;;9.30;100.00
804;BME280;25687;49.976;8.240;2022-09-20T00:43:56;100598.34;;;9.20;100.00
804;BME280;25687;49.976;8.240;2022-09-20T00:49:12;100604.19;;;9.24;100.00
804;BME280;25687;49.976;8.240;2022-09-20T00:51:40;100601.56;;;9.25;100.00
804;BME280;25687;49.976;8.240;2022-09-20T00:54:11;100600.31;;;9.35;100.00
804;BME280;25687;49.976;8.240;2022-09-20T00:56:40;100606.41;;;9.33;100.00
804;BME280;25687;49.976;8.240;2022-09-20T00:59:26;100602.34;;;9.27;100.00
804;BME280;25687;49.976;8.240;2022-09-20T01:02:25;100604.97;;;9.26;100.00
804;BME280;25687;49.976;8.240;2022-09-20T01:04:54;100606.16;;;9.39;100.00
804;BME280;25687;49.976;8.240;2022-09-20T01:07:22;100613.97;;;9.36;100.00
804;BME280;25687;49.976;8.240;2022-09-20T01:09:48;100614.75;;;9.38;100.00
804;BME280;25687;49.976;8.240;2022-09-20T01:12:20;100619.50;;;9.27;100.00
804;BME280;25687;49.976;8.240;2022-09-20T01:14:48;100615.81;;;9.32;100.00
804;BME280;25687;49.976;8.240;2022-09-20T01:17:16;100619.53;;;9.25;100.00
804;BME280;25687;49.976;8.240;2022-09-20T01:19:48;100621.09;;;9.29;100.00
804;BME280;25687;49.976;8.240;2022-09-20T01:22:26;100623.78;;;9.26;100.00
804;BME280;25687;49.976;8.240;2022-09-20T01:25:05;100615.25;;;9.26;100.00
804;BME280;25687;49.976;8.240;2022-09-20T01:27:47;100619.34;;;9.30;100.00
804;BME280;25687;49.976;8.240;2022-09-20T01:30:17;100614.28;;;9.28;100.00
804;BME280;25687;49.976;8.240;2022-09-20T01:33:13;100617.44;;;9.35;100.00
804;BME280;25687;49.976;8.240;2022-09-20T01:35:43;100618.06;;;9.40;100.00
804;BME280;25687;49.976;8.240;2022-09-20T01:38:22;100614.16;;;9.31;100.00
804;BME280;25687;49.976;8.240;2022-09-20T01:41:05;100623.34;;;9.37;100.00
804;BME280;25687;49.976;8.240;2022-09-20T01:46:30;100622.34;;;9.19;100.00
804;BME280;25687;49.976;8.240;2022-09-20T02:00:50;100621.22;;;9.04;100.00
804;BME280;25687;49.976;8.240;2022-09-20T02:14:36;100616.47;;;8.95;100.00
804;BME280;25687;49.976;8.240;2022-09-20T02:17:30;100615.81;;;8.67;100.00
804;BME280;25687;49.976;8.240;2022-09-20T02:20:12;100622.00;;;8.62;100.00
804;BME280;25687;49.976;8.240;2022-09-20T02:22:41;100616.66;;;8.68;100.00
804;BME280;25687;49.976;8.240;2022-09-20T02:25:46;100612.41;;;8.67;100.00
804;BME280;25687;49.976;8.240;2022-09-20T02:28:43;100609.25;;;8.60;100.00
804;BME280;25687;49.976;8.240;2022-09-20T02:31:34;100614.50;;;8.57;100.00
804;BME280;25687;49.976;8.240;2022-09-20T02:34:38;100609.78;;;8.46;100.00
804;BME280;25687;49.976;8.240;2022-09-20T02:43:31;100617.19;;;8.54;100.00
804;BME280;25687;49.976;8.240;2022-09-20T02:46:05;100616.44;;;8.50;100.00
804;BME280;25687;49.976;8.240;2022-09-20T02:51:43;100622.16;;;8.33;100.00
804;BME280;25687;49.976;8.240;2022-09-20T02:54:30;100626.75;;;8.25;100.00
804;BME280;25687;49.976;8.240;2022-09-20T02:57:12;100630.06;;;8.29;100.00
804;BME280;25687;49.976;8.240;2022-09-20T03:05:18;100631.53;;;8.11;100.00
804;BME280;25687;49.976;8.240;2022-09-20T03:16:06;100620.84;;;7.99;100.00
804;BME280;25687;49.976;8.240;2022-09-20T03:18:58;100633.13;;;7.89;100.00
804;BME280;25687;49.976;8.240;2022-09-20T03:21:43;100625.28;;;7.94;100.00
804;BME280;25687;49.976;8.240;2022-09-20T03:24:28;100634.69;;;7.94;100.00
804;BME280;25687;49.976;8.240;2022-09-20T03:27:06;100634.97;;;7.86;100.00
804;BME280;25687;49.976;8.240;2022-09-20T03:34:54;100640.97;;;7.85;100.00
804;BME280;25687;49.976;8.240;2022-09-20T03:37:48;100644.53;;;7.81;100.00
804;BME280;25687;49.976;8.240;2022-09-20T03:40:30;100640.81;;;7.89;100.00
804;BME280;25687;49.976;8.240;2022-09-20T03:43:23;100646.97;;;7.84;100.00
804;BME280;25687;49.976;8.240;2022-09-20T03:45:56;100640.00;;;7.89;100.00
804;BME280;25687;49.976;8.240;2022-09-20T03:57:01;100652.06;;;7.85;100.00
804;BME280;25687;49.976;8.240;2022-09-20T03:59:57;100644.59;;;7.79;100.00
804;BME280;25687;49.976;8.240;2022-09-20T04:11:04;100653.47;;;7.94;100.00
804;BME280;25687;49.976;8.240;2022-09-20T04:13:43;100651.66;;;7.98;100.00
804;BME280;25687;49.976;8.240;2022-09-20T04:19:20;100652.69;;;7.92;100.00
804;BME280;25687;49.976;8.240;2022-09-20T04:21:53;100649.75;;;7.78;100.00
804;BME280;25687;49.976;8.240;2022-09-20T04:27:00;100654.03;;;7.77;100.00
804;BME280;25687;49.976;8.240;2022-09-20T04:29:39;100654.44;;;7.90;100.00
804;BME280;25687;49.976;8.240;2022-09-20T04:32:27;100648.03;;;7.78;100.00
804;BME280;25687;49.976;8.240;2022-09-20T04:35:24;100643.81;;;7.77;100.00
804;BME280;25687;49.976;8.240;2022-09-20T04:38:15;100647.09;;;7.81;100.00
804;BME280;25687;49.976;8.240;2022-09-20T04:56:00;100663.41;;;8.52;100.00
804;BME280;25687;49.976;8.240;2022-09-20T05:26:37;100672.56;;;9.26;100.00
804;BME280;25687;49.976;8.240;2022-09-20T05:29:30;100683.81;;;9.44;100.00
804;BME280;25687;49.976;8.240;2022-09-20T05:42:53;100692.13;;;9.72;100.00
804;BME280;25687;49.976;8.240;2022-09-20T06:02:13;100705.75;;;10.34;100.00
804;BME280;25687;49.976;8.240;2022-09-20T06:05:11;100698.72;;;10.39;100.00
804;BME280;25687;49.976;8.240;2022-09-20T06:08:51;100707.63;;;10.51;100.00
804;BME280;25687;49.976;8.240;2022-09-20T06:13:30;100706.72;;;10.52;100.00
804;BME280;25687;49.976;8.240;2022-09-20T06:16:00;100707.63;;;10.70;100.00
804;BME280;25687;49.976;8.240;2022-09-20T06:21:47;100702.06;;;10.79;100.00
804;BME280;25687;49.976;8.240;2022-09-20T06:24:46;100707.03;;;10.84;100.00
804;BME280;25687;49.976;8.240;2022-09-20T06:27:28;100705.53;;;10.97;100.00
804;BME280;25687;49.976;8.240;2022-09-20T06:30:00;100697.72;;;11.36;100.00
804;BME280;25687;49.976;8.240;2022-09-20T06:32:30;100701.53;;;11.81;100.00
804;BME280;25687;49.976;8.240;2022-09-20T06:34:57;100701.25;;;12.38;100.00
804;BME280;25687;49.976;8.240;2022-09-20T06:40:47;100693.00;;;14.32;100.00
804;BME280;25687;49.976;8.240;2022-09-20T06:43:35;100693.75;;;14.90;93.19
804;BME280;25687;49.976;8.240;2022-09-20T06:46:01;100696.50;;;15.82;85.42
804;BME280;25687;49.976;8.240;2022-09-20T06:48:26;100689.44;;;16.97;77.57
804;BME280;25687;49.976;8.240;2022-09-20T06:50:54;100692.59;;;17.49;65.94
804;BME280;25687;49.976;8.240;2022-09-20T06:53:26;100707.91;;;17.65;66.30
804;BME280;25687;49.976;8.240;2022-09-20T06:55:53;100695.59;;;18.92;58.73
804;BME280;25687;49.976;8.240;2022-09-20T06:58:21;100699.97;;;19.66;55.02
804;BME280;25687;49.976;8.240;2022-09-20T07:00:46;100714.47;;;19.80;54.23
804;BME280;25687;49.976;8.240;2022-09-20T07:03:12;100712.16;;;19.35;54.24
804;BME280;25687;49.976;8.240;2022-09-20T07:05:43;100712.09;;;19.46;53.48
804;BME280;25687;49.976;8.240;2022-09-20T07:08:12;100711.66;;;20.45;50.46
804;BME280;25687;49.976;8.240;2022-09-20T07:10:37;100720.41;;;21.05;47.43
804;BME280;25687;49.976;8.240;2022-09-20T07:13:04;100723.13;;;21.82;45.08
804;BME280;25687;49.976;8.240;2022-09-20T07:15:36;100727.44;;;21.53;45.72
804;BME280;25687;49.976;8.240;2022-09-20T07:18:02;100722.88;;;21.75;44.48
804;BME280;25687;49.976;8.240;2022-09-20T07:20:29;100725.31;;;22.62;41.93
804;BME280;25687;49.976;8.240;2022-09-20T07:22:55;100728.25;;;23.75;39.72
804;BME280;25687;49.976;8.240;2022-09-20T07:25:23;100729.41;;;23.28;40.89
804;BME280;25687;49.976;8.240;2022-09-20T07:27:49;100730.13;;;22.01;42.67
804;BME280;25687;49.976;8.240;2022-09-20T07:30:18;100732.84;;;22.93;41.06
804;BME280;25687;49.976;8.240;2022-09-20T07:32:44;100736.25;;;22.19;43.10
804;BME280;25687;49.976;8.240;2022-09-20T07:35:15;100736.81;;;21.26;46.25
804;BME280;25687;49.976;8.240;2022-09-20T07:37:44;100727.41;;;20.75;45.84
804;BME280;25687;49.976;8.240;2022-09-20T07:40:11;100738.59;;;21.36;45.20
804;BME280;25687;49.976;8.240;2022-09-20T07:42:36;100735.66;;;20.70;46.91
804;BME280;25687;49.976;8.240;2022-09-20T07:45:05;100733.19;;;21.86;44.29
804;BME280;25687;49.976;8.240;2022-09-20T07:47:33;100744.13;;;21.52;44.75
804;BME280;25687;49.976;8.240;2022-09-20T07:50:05;100746.25;;;19.64;47.55
804;BME280;25687;49.976;8.240;2022-09-20T07:52:31;100744.63;;;20.15;47.63
804;BME280;25687;49.976;8.240;2022-09-20T07:54:56;100754.47;;;21.64;44.09
804;BME280;25687;49.976;8.240;2022-09-20T07:57:24;100751.41;;;21.49;43.30
804;BME280;25687;49.976;8.240;2022-09-20T07:59:52;100754.03;;;20.18;44.91
804;BME280;25687;49.976;8.240;2022-09-20T08:02:17;100762.59;;;20.71;45.81
804;BME280;25687;49.976;8.240;2022-09-20T08:04:45;100747.97;;;21.19;44.40
804;BME280;25687;49.976;8.240;2022-09-20T08:07:14;100757.06;;;22.21;42.00
804;BME280;25687;49.976;8.240;2022-09-20T08:09:39;100751.41;;;21.19;44.43
804;BME280;25687;49.976;8.240;2022-09-20T08:12:05;100752.78;;;21.33;43.62
804;BME280;25687;49.976;8.240;2022-09-20T08:14:35;100750.84;;;20.14;46.80
804;BME280;25687;49.976;8.240;2022-09-20T08:17:00;100750.75;;;19.95;48.22
804;BME280;25687;49.976;8.240;2022-09-20T08:19:26;100755.19;;;19.83;49.41
804;BME280;25687;49.976;8.240;2022-09-20T08:21:52;100765.16;;;18.92;51.60
804;BME280;25687;49.976;8.240;2022-09-20T08:24:18;100763.94;;;17.34;59.16
804;BME280;25687;49.976;8.240;2022-09-20T08:26:44;100763.13;;;17.33;60.41
804;BME280;25687;49.976;8.240;2022-09-20T08:29:10;100751.28;;;17.29;62.03
804;BME280;25687;49.976;8.240;2022-09-20T08:31:37;100761.09;;;16.75;64.37
804;BME280;25687;49.976;8.240;2022-09-20T08:34:09;100762.00;;;16.11;65.79
804;BME280;25687;49.976;8.240;2022-09-20T08:36:39;100754.81;;;15.89;69.34
804;BME280;25687;49.976;8.240;2022-09-20T08:39:05;100756.38;;;16.05;69.89
804;BME280;25687;49.976;8.240;2022-09-20T08:41:52;100753.38;;;16.11;66.47
804;BME280;25687;49.976;8.240;2022-09-20T08:44:31;100747.59;;;16.70;62.08
804;BME280;25687;49.976;8.240;2022-09-20T08:47:25;100756.16;;;18.05;54.73
804;BME280;25687;49.976;8.240;2022-09-20T08:49:52;100760.16;;;18.09;55.97
804;BME280;25687;49.976;8.240;2022-09-20T08:52:29;100752.75;;;18.27;54.16
804;BME280;25687;49.976;8.240;2022-09-20T08:54:56;100751.38;;;19.33;51.90
804;BME280;25687;49.976;8.240;2022-09-20T08:57:23;100750.72;;;21.37;43.39
804;BME280;25687;49.976;8.240;2022-09-20T09:00:04;100755.16;;;22.79;40.12
804;BME280;25687;49.976;8.240;2022-09-20T09:02:31;100754.44;;;21.15;43.01
804;BME280;25687;49.976;8.240;2022-09-20T09:04:57;100754.28;;;18.41;51.48
804;BME280;25687;49.976;8.240;2022-09-20T09:07:24;100759.25;;;17.86;51.05
804;BME280;25687;49.976;8.240;2022-09-20T09:09:51;100758.88;;;16.95;54.21
804;BME280;25687;49.976;8.240;2022-09-20T09:12:25;100763.72;;;17.13;57.74
804;BME280;25687;49.976;8.240;2022-09-20T09:14:59;100775.81;;;16.25;74.14
804;BME280;25687;49.976;8.240;2022-09-20T09:17:28;100769.47;;;15.63;83.70
804;BME280;25687;49.976;8.240;2022-09-20T09:19:59;100770.56;;;15.46;92.35
804;BME280;25687;49.976;8.240;2022-09-20T09:22:40;100779.06;;;14.50;98.11
804;BME280;25687;49.976;8.240;2022-09-20T09:27:34;100777.50;;;13.88;100.00
804;BME280;25687;49.976;8.240;2022-09-20T09:30:00;100778.44;;;13.71;100.00
804;BME280;25687;49.976;8.240;2022-09-20T09:32:31;100772.88;;;13.63;100.00
804;BME280;25687;49.976;8.240;2022-09-20T09:35:27;100781.88;;;13.55;100.00
804;BME280;25687;49.976;8.240;2022-09-20T09:38:00;100774.56;;;13.32;100.00
804;BME280;25687;49.976;8.240;2022-09-20T09:40:27;100768.50;;;13.17;100.00
804;BME280;25687;49.976;8.240;2022-09-20T09:42:55;100768.47;;;13.01;100.00
804;BME280;25687;49.976;8.240;2022-09-20T09:45:35;100758.16;;;13.01;88.71
804;BME280;25687;49.976;8.240;2022-09-20T09:50:46;100763.63;;;13.89;99.98
804;BME280;25687;49.976;8.240;2022-09-20T09:53:15;100752.56;;;15.70;99.44
804;BME280;25687;49.976;8.240;2022-09-20T09:56:11;100759.94;;;18.12;81.82
804;BME280;25687;49.976;8.240;2022-09-20T09:58:52;100745.25;;;19.98;69.85
804;BME280;25687;49.976;8.240;2022-09-20T10:07:18;100754.78;;;19.66;58.43
804;BME280;25687;49.976;8.240;2022-09-20T10:12:53;100745.19;;;17.41;68.92
804;BME280;25687;49.976;8.240;2022-09-20T10:23:38;100750.88;;;16.22;89.49
804;BME280;25687;49.976;8.240;2022-09-20T10:32:03;100746.28;;;16.52;84.27
804;BME280;25687;49.976;8.240;2022-09-20T10:40:45;100744.28;;;18.01;69.22
804;BME280;25687;49.976;8.240;2022-09-20T10:46:39;100737.38;;;17.88;68.20
804;BME280;25687;49.976;8.240;2022-09-20T11:03:36;100735.59;;;16.56;65.36
804;BME280;25687;49.976;8.240;2022-09-20T11:08:42;100745.06;;;16.06;75.87
804;BME280;25687;49.976;8.240;2022-09-20T11:11:23;100745.31;;;15.08;77.49
804;BME280;25687;49.976;8.240;2022-09-20T11:14:17;100752.63;;;14.74;76.05
804;BME280;25687;49.976;8.240;2022-09-20T11:16:54;100757.41;;;14.36;82.41
804;BME280;25687;49.976;8.240;2022-09-20T11:22:23;100757.31;;;14.96;88.00
804;BME280;25687;49.976;8.240;2022-09-20T11:25:03;100758.09;;;15.11;81.64
804;BME280;25687;49.976;8.240;2022-09-20T11:27:39;100756.75;;;15.45;79.49
804;BME280;25687;49.976;8.240;2022-09-20T11:30:16;100766.78;;;15.64;77.87
804;BME280;25687;49.976;8.240;2022-09-20T11:32:53;100763.44;;;15.49;74.53
804;BME280;25687;49.976;8.240;2022-09-20T11:35:39;100763.94;;;15.14;70.24
804;BME280;25687;49.976;8.240;2022-09-20T11:40:46;100754.34;;;15.29;65.48
804;BME280;25687;49.976;8.240;2022-09-20T11:43:16;100755.16;;;15.30;70.92
804;BME280;25687;49.976;8.240;2022-09-20T11:45:47;100753.69;;;15.53;67.94
804;BME280;25687;49.976;8.240;2022-09-20T11:56:26;100752.41;;;16.64;61.30
804;BME280;25687;49.976;8.240;2022-09-20T12:01:56;100741.78;;;16.67;65.40
804;BME280;25687;49.976;8.240;2022-09-20T12:04:28;100749.00;;;16.24;62.54
804;BME280;25687;49.976;8.240;2022-09-20T12:07:07;100739.88;;;16.06;68.52
804;BME280;25687;49.976;8.240;2022-09-20T12:09:53;100751.06;;;15.93;67.42
804;BME280;25687;49.976;8.240;2022-09-20T12:12:46;100746.22;;;16.14;65.60
804;BME280;25687;49.976;8.240;2022-09-20T12:15:31;100750.84;;;16.48;64.53
804;BME280;25687;49.976;8.240;2022-09-20T12:18:13;100742.56;;;16.43;63.49
804;BME280;25687;49.976;8.240;2022-09-20T12:23:42;100739.50;;;16.75;65.22
804;BME280;25687;49.976;8.240;2022-09-20T12:26:08;100738.34;;;16.92;61.95
804;BME280;25687;49.976;8.240;2022-09-20T12:36:40;100738.53;;;16.00;58.85
804;BME280;25687;49.976;8.240;2022-09-20T12:41:58;100740.84;;;15.77;62.60
804;BME280;25687;49.976;8.240;2022-09-20T12:57:57;100729.88;;;15.06;65.38
804;BME280;25687;49.976;8.240;2022-09-20T13:13:42;100717.06;;;15.85;58.25
804;BME280;25687;49.976;8.240;2022-09-20T13:19:23;100710.09;;;15.86;59.01
804;BME280;25687;49.976;8.240;2022-09-20T13:24:24;100710.72;;;15.89;56.25
804;BME280;25687;49.976;8.240;2022-09-20T13:26:52;100720.09;;;15.64;59.34
804;BME280;25687;49.976;8.240;2022-09-20T13:29:30;100717.28;;;15.55;59.69
804;BME280;25687;49.976;8.240;2022-09-20T13:32:17;100733.63;;;15.82;59.09
804;BME280;25687;49.976;8.240;2022-09-20T13:34:43;100731.41;;;15.76;58.42
804;BME280;25687;49.976;8.240;2022-09-20T13:37:17;100729.44;;;15.80;61.58
804;BME280;25687;49.976;8.240;2022-09-20T13:39:53;100733.94;;;16.04;57.89
804;BME280;25687;49.976;8.240;2022-09-20T13:42:19;100730.44;;;15.92;59.00
804;BME280;25687;49.976;8.240;2022-09-20T13:44:49;100732.41;;;15.88;58.48
804;BME280;25687;49.976;8.240;2022-09-20T13:47:24;100724.38;;;15.78;52.26
804;BME280;25687;49.976;8.240;2022-09-20T13:49:50;100731.06;;;16.08;54.25
804;BME280;25687;49.976;8.240;2022-09-20T13:52:29;100726.09;;;16.05;54.98
804;BME280;25687;49.976;8.240;2022-09-20T13:54:55;100730.63;;;16.14;54.95
804;BME280;25687;49.976;8.240;2022-09-20T13:57:25;100725.91;;;15.81;53.12
804;BME280;25687;49.976;8.240;2022-09-20T13:59:52;100726.53;;;15.72;53.99
804;BME280;25687;49.976;8.240;2022-09-20T14:02:31;100726.78;;;15.94;53.73
804;BME280;25687;49.976;8.240;2022-09-20T14:04:59;100728.50;;;15.68;56.47
804;BME280;25687;49.976;8.240;2022-09-20T14:07:29;100720.25;;;15.89;55.03
804;BME280;25687;49.976;8.240;2022-09-20T14:09:55;100731.88;;;15.83;54.68
804;BME280;25687;49.976;8.240;2022-09-20T14:12:24;100722.47;;;15.55;53.30
804;BME280;25687;49.976;8.240;2022-09-20T14:14:51;100724.06;;;15.30;54.44
804;BME280;25687;49.976;8.240;2022-09-20T14:17:21;100732.50;;;15.19;54.56
804;BME280;25687;49.976;8.240;2022-09-20T14:19:52;100725.91;;;15.28;55.30
804;BME280;25687;49.976;8.240;2022-09-20T14:22:23;100718.78;;;15.04;56.26
804;BME280;25687;49.976;8.240;2022-09-20T14:27:36;100718.22;;;14.72;63.19
804;BME280;25687;49.976;8.240;2022-09-20T14:30:02;100721.94;;;14.67;64.05
804;BME280;25687;49.976;8.240;2022-09-20T14:32:45;100723.31;;;14.44;62.63
804;BME280;25687;49.976;8.240;2022-09-20T14:35:21;100718.41;;;14.40;65.25
804;BME280;25687;49.976;8.240;2022-09-20T14:37:49;100715.63;;;14.43;62.90
804;BME280;25687;49.976;8.240;2022-09-20T14:40:24;100714.72;;;14.29;64.52
804;BME280;25687;49.976;8.240;2022-09-20T14:42:57;100714.81;;;14.28;67.01
804;BME280;25687;49.976;8.240;2022-09-20T14:45:35;100715.25;;;14.06;68.73
804;BME280;25687;49.976;8.240;2022-09-20T14:50:45;100718.50;;;14.09;71.24
804;BME280;25687;49.976;8.240;2022-09-20T14:53:29;100718.78;;;14.19;73.67
804;BME280;25687;49.976;8.240;2022-09-20T14:55:58;100713.59;;;14.04;73.18
804;BME280;25687;49.976;8.240;2022-09-20T14:58:26;100705.56;;;14.09;74.42
804;BME280;25687;49.976;8.240;2022-09-20T15:01:00;100698.72;;;14.23;74.61
804;BME280;25687;49.976;8.240;2022-09-20T15:03:38;100705.47;;;14.25;72.84
804;BME280;25687;49.976;8.240;2022-09-20T15:06:08;100700.56;;;14.49;72.94
804;BME280;25687;49.976;8.240;2022-09-20T15:08:34;100704.31;;;14.58;73.26
804;BME280;25687;49.976;8.240;2022-09-20T15:11:05;100715.34;;;14.47;73.88
804;BME280;25687;49.976;8.240;2022-09-20T15:13:31;100705.44;;;14.54;71.24
804;BME280;25687;49.976;8.240;2022-09-20T15:16:00;100708.69;;;14.58;70.41
804;BME280;25687;49.976;8.240;2022-09-20T15:18:29;100710.25;;;14.46;68.99
804;BME280;25687;49.976;8.240;2022-09-20T15:20:58;100708.59;;;14.59;66.92
804;BME280;25687;49.976;8.240;2022-09-20T15:23:23;100713.50;;;14.64;61.48
804;BME280;25687;49.976;8.240;2022-09-20T15:25:54;100710.72;;;14.67;61.74
804;BME280;25687;49.976;8.240;2022-09-20T15:28:26;100709.16;;;14.50;61.73
804;BME280;25687;49.976;8.240;2022-09-20T15:30:58;100706.38;;;14.39;61.63
804;BME280;25687;49.976;8.240;2022-09-20T15:33:23;100706.66;;;14.48;60.12
804;BME280;25687;49.976;8.240;2022-09-20T15:35:51;100707.41;;;14.50;61.16
804;BME280;25687;49.976;8.240;2022-09-20T15:38:17;100704.25;;;14.45;64.36
804;BME280;25687;49.976;8.240;2022-09-20T15:40:45;100707.19;;;14.53;64.50
804;BME280;25687;49.976;8.240;2022-09-20T15:43:22;100712.94;;;14.30;64.04
804;BME280;25687;49.976;8.240;2022-09-20T15:45:55;100713.69;;;14.03;66.28
804;BME280;25687;49.976;8.240;2022-09-20T15:48:29;100713.56;;;13.90;70.26
804;BME280;25687;49.976;8.240;2022-09-20T15:51:04;100709.69;;;13.97;72.11
804;BME280;25687;49.976;8.240;2022-09-20T15:53:33;100709.25;;;13.91;73.94
804;BME280;25687;49.976;8.240;2022-09-20T15:56:00;100702.50;;;13.88;74.75
804;BME280;25687;49.976;8.240;2022-09-20T15:58:31;100710.00;;;13.62;77.81
804;BME280;25687;49.976;8.240;2022-09-20T16:01:04;100703.22;;;13.45;77.96
804;BME280;25687;49.976;8.240;2022-09-20T16:03:30;100706.00;;;13.42;79.77
804;BME280;25687;49.976;8.240;2022-09-20T16:06:00;100711.53;;;13.34;81.05
804;BME280;25687;49.976;8.240;2022-09-20T16:08:34;100707.00;;;13.23;80.21
804;BME280;25687;49.976;8.240;2022-09-20T16:11:00;100712.56;;;13.32;81.12
804;BME280;25687;49.976;8.240;2022-09-20T16:13:25;100716.38;;;13.24;82.48
804;BME280;25687;49.976;8.240;2022-09-20T16:15:59;100719.50;;;13.15;83.56
804;BME280;25687;49.976;8.240;2022-09-20T16:18:28;100717.06;;;13.12;85.00
804;BME280;25687;49.976;8.240;2022-09-20T16:21:16;100724.91;;;13.27;84.19
804;BME280;25687;49.976;8.240;2022-09-20T16:23:46;100732.31;;;13.33;84.23
804;BME280;25687;49.976;8.240;2022-09-20T16:26:12;100727.72;;;13.22;86.03
804;BME280;25687;49.976;8.240;2022-09-20T16:28:41;100725.50;;;13.16;86.88
804;BME280;25687;49.976;8.240;2022-09-20T16:31:34;100725.09;;;13.07;88.52
804;BME280;25687;49.976;8.240;2022-09-20T16:34:06;100729.34;;;13.08;90.58
804;BME280;25687;49.976;8.240;2022-09-20T16:36:38;100725.34;;;13.19;88.52
804;BME280;25687;49.976;8.240;2022-09-20T16:39:11;100728.59;;;13.06;87.35
804;BME280;25687;49.976;8.240;2022-09-20T16:41:43;100726.81;;;13.07;87.49
804;BME280;25687;49.976;8.240;2022-09-20T16:44:09;100735.59;;;13.04;89.27
804;BME280;25687;49.976;8.240;2022-09-20T16:46:35;100724.44;;;13.04;89.02
804;BME280;25687;49.976;8.240;2022-09-20T16:49:06;100733.75;;;13.22;88.62
804;BME280;25687;49.976;8.240;2022-09-20T16:51:34;100734.41;;;13.26;93.40
804;BME280;25687;49.976;8.240;2022-09-20T16:54:09;100742.00;;;13.13;92.67
804;BME280;25687;49.976;8.240;2022-09-20T16:56:48;100737.59;;;13.15;91.93
804;BME280;25687;49.976;8.240;2022-09-20T16:59:19;100739.16;;;13.18;95.06
804;BME280;25687;49.976;8.240;2022-09-20T17:01:48;100738.47;;;13.30;92.24
804;BME280;25687;49.976;8.240;2022-09-20T17:04:19;100737.00;;;13.26;92.69
804;BME280;25687;49.976;8.240;2022-09-20T17:06:47;100743.56;;;13.16;91.98
804;BME280;25687;49.976;8.240;2022-09-20T17:09:14;100740.94;;;13.01;89.37
804;BME280;25687;49.976;8.240;2022-09-20T17:11:47;100749.41;;;13.03;88.17
804;BME280;25687;49.976;8.240;2022-09-20T17:14:15;100745.25;;;13.17;88.61
804;BME280;25687;49.976;8.240;2022-09-20T17:16:41;100754.22;;;13.26;88.79
804;BME280;25687;49.976;8.240;2022-09-20T17:19:11;100751.06;;;13.04;85.68
804;BME280;25687;49.976;8.240;2022-09-20T17:21:42;100753.91;;;13.16;86.77
804;BME280;25687;49.976;8.240;2022-09-20T17:24:10;100752.16;;;13.00;92.64
804;BME280;25687;49.976;8.240;2022-09-20T17:26:39;100756.09;;;13.07;91.86
804;BME280;25687;49.976;8.240;2022-09-20T17:29:10;100760.41;;;13.07;90.13
804;BME280;25687;49.976;8.240;2022-09-20T17:31:42;100766.75;;;13.01;90.40
804;BME280;25687;49.976;8.240;2022-09-20T17:34:10;100773.06;;;12.96;89.29
804;BME280;25687;49.976;8.240;2022-09-20T17:36:41;100774.50;;;12.85;91.58
804;BME280;25687;49.976;8.240;2022-09-20T17:39:11;100773.22;;;12.77;92.05
804;BME280;25687;49.976;8.240;2022-09-20T17:41:43;100785.69;;;12.68;89.66
804;BME280;25687;49.976;8.240;2022-09-20T17:44:12;100784.88;;;12.68;89.84
804;BME280;25687;49.976;8.240;2022-09-20T17:46:45;100783.66;;;12.57;91.35
804;BME280;25687;49.976;8.240;2022-09-20T17:49:15;100794.00;;;12.57;92.97
804;BME280;25687;49.976;8.240;2022-09-20T17:51:44;100783.00;;;12.54;93.93
804;BME280;25687;49.976;8.240;2022-09-20T17:54:18;100787.72;;;12.46;95.90
804;BME280;25687;49.976;8.240;2022-09-20T17:56:47;100787.97;;;12.41;98.37
804;BME280;25687;49.976;8.240;2022-09-20T17:59:15;100787.09;;;12.24;100.00
804;BME280;25687;49.976;8.240;2022-09-20T18:01:45;100790.63;;;12.04;100.00
804;BME280;25687;49.976;8.240;2022-09-20T18:04:13;100790.72;;;12.20;98.27
804;BME280;25687;49.976;8.240;2022-09-20T18:06:44;100792.31;;;12.05;97.85
804;BME280;25687;49.976;8.240;2022-09-20T18:09:17;100799.03;;;11.90;97.21
804;BME280;25687;49.976;8.240;2022-09-20T18:11:47;100804.72;;;11.79;98.79
804;BME280;25687;49.976;8.240;2022-09-20T18:14:18;100808.31;;;11.58;100.00
804;BME280;25687;49.976;8.240;2022-09-20T18:16:44;100809.78;;;11.63;100.00
804;BME280;25687;49.976;8.240;2022-09-20T18:19:10;100810.75;;;11.61;100.00
804;BME280;25687;49.976;8.240;2022-09-20T18:21:38;100817.13;;;11.54;100.00
804;BME280;25687;49.976;8.240;2022-09-20T18:24:08;100816.41;;;11.31;100.00